Time;durP1;ratioP1;P1;durP2;ratioP2;P2;SDS_P1;SDS_P2;PMS_P1;PMS_P2;Temp;Humidity;BMP_temperature;BMP_pressure;BME280_temperature;BME280_humidity;BME280_pressure;Samples;Min_cycle;Max_cycle;Signal;HPM_P1;HPM_P2
2022/05/20 03:57:10;;;;;;;24.60;22.80;;;18.10;99.90;;;;;;5989062;23;20395;-76
2022/05/20 03:59:39;;;;;;;24.80;23.10;;;18.20;99.90;;;;;;4921855;29;20512;-75
2022/05/20 04:02:06;;;;;;;24.00;22.43;;;18.20;99.90;;;;;;4932223;29;20470;-76
2022/05/20 04:04:36;;;;;;;24.30;22.37;;;18.20;99.90;;;;;;4924867;29;20458;-74
2022/05/20 04:07:05;;;;;;;22.53;20.97;;;18.20;99.90;;;;;;4916461;29;20764;-73
2022/05/20 04:09:31;;;;;;;24.20;22.50;;;18.20;99.90;;;;;;4916687;29;20604;-73
2022/05/20 04:12:00;;;;;;;23.03;21.53;;;18.30;99.90;;;;;;4916582;29;20486;-75
2022/05/20 04:14:28;;;;;;;25.10;23.50;;;18.30;99.90;;;;;;4916520;29;20494;-75
2022/05/20 04:16:57;;;;;;;24.33;22.67;;;18.30;99.90;;;;;;4916473;29;20462;-75
2022/05/20 04:19:24;;;;;;;24.30;22.30;;;18.30;99.90;;;;;;4916820;29;20851;-75
2022/05/20 04:21:52;;;;;;;21.50;20.20;;;18.30;99.90;;;;;;4916470;29;20462;-75
2022/05/20 04:24:19;;;;;;;20.93;19.63;;;18.20;99.90;;;;;;4916104;29;20509;-75
2022/05/20 04:26:46;;;;;;;21.13;19.87;;;18.20;99.90;;;;;;4916164;29;20459;-75
2022/05/20 04:29:13;;;;;;;23.17;21.20;;;18.20;99.90;;;;;;4916111;29;20459;-75
2022/05/20 04:31:43;;;;;;;21.23;19.73;;;18.20;99.90;;;;;;4916213;29;20458;-74
2022/05/20 04:34:11;;;;;;;22.43;20.53;;;18.20;99.90;;;;;;4916444;29;20510;-75
2022/05/20 04:36:37;;;;;;;24.00;22.30;;;18.20;99.90;;;;;;4916154;29;20458;-75
2022/05/20 04:39:04;;;;;;;24.40;22.60;;;18.30;99.90;;;;;;4915794;29;20458;-76
2022/05/20 04:47:01;;;;;;;24.53;22.37;;;18.50;99.90;;;;;;4915919;29;20481;-75
2022/05/20 04:49:31;;;;;;;23.37;21.67;;;18.70;99.90;;;;;;4915823;29;20576;-76
2022/05/20 04:52:00;;;;;;;21.77;20.17;;;18.80;99.90;;;;;;4915926;29;20454;-75
2022/05/20 04:57:20;;;;;;;22.67;21.13;;;19.20;99.90;;;;;;4915800;29;20468;-75
2022/05/20 04:59:48;;;;;;;22.10;20.50;;;19.50;99.90;;;;;;4934088;29;20532;-75
2022/05/20 05:02:14;;;;;;;20.17;18.80;;;19.80;99.90;;;;;;4934352;29;20460;-76
2022/05/20 05:04:42;;;;;;;21.07;18.80;;;20.10;99.90;;;;;;4944181;29;21066;-81
2022/05/20 05:07:11;;;;;;;22.13;20.47;;;20.40;99.90;;;;;;4935934;29;20461;-81
2022/05/20 05:09:38;;;;;;;20.33;18.83;;;20.60;99.90;;;;;;4934763;29;20959;-80
2022/05/20 05:12:06;;;;;;;19.83;18.60;;;20.90;99.90;;;;;;4934754;29;20524;-77
2022/05/20 05:14:37;;;;;;;19.87;18.67;;;21.10;99.90;;;;;;4934247;29;20476;-76
2022/05/20 05:17:06;;;;;;;21.13;19.67;;;21.20;99.90;;;;;;4934646;29;21197;-75
2022/05/20 05:19:35;;;;;;;21.23;19.67;;;21.30;99.90;;;;;;4934648;29;20460;-77
2022/05/20 05:22:04;;;;;;;20.20;18.60;;;21.30;99.90;;;;;;4935364;29;20453;-74
2022/05/20 05:24:31;;;;;;;20.37;18.87;;;21.50;99.90;;;;;;4936724;29;20836;-74
2022/05/20 05:26:58;;;;;;;19.50;18.20;;;21.70;99.90;;;;;;4951000;29;21021;-76
2022/05/20 05:29:25;;;;;;;20.30;18.60;;;21.90;99.90;;;;;;4954681;29;20449;-76
2022/05/20 05:31:52;;;;;;;19.57;17.87;;;22.10;99.90;;;;;;4954034;29;20511;-77
2022/05/20 05:34:18;;;;;;;19.00;17.80;;;22.20;99.90;;;;;;4953349;29;20531;-76
2022/05/20 05:36:45;;;;;;;19.13;17.90;;;22.20;99.90;;;;;;4953409;29;20464;-77
2022/05/20 05:39:13;;;;;;;18.40;17.03;;;22.20;99.90;;;;;;4953425;29;20456;-76
2022/05/20 05:41:40;;;;;;;19.07;17.77;;;22.30;99.90;;;;;;4953231;29;20488;-75
2022/05/20 05:44:07;;;;;;;17.30;16.20;;;22.30;99.90;;;;;;4952625;29;20551;-75
2022/05/20 05:46:33;;;;;;;19.20;17.87;;;22.50;99.90;;;;;;4952879;29;20511;-78
2022/05/20 05:49:00;;;;;;;19.17;17.57;;;22.50;99.90;;;;;;4952982;29;20444;-79
2022/05/20 05:51:27;;;;;;;17.97;16.47;;;22.60;99.90;;;;;;4953082;29;20452;-78
2022/05/20 05:53:54;;;;;;;18.90;17.70;;;22.70;99.90;;;;;;4952997;29;20460;-80
2022/05/20 05:56:22;;;;;;;19.50;18.20;;;22.80;99.90;;;;;;4952961;28;20976;-80
2022/05/20 05:58:48;;;;;;;18.40;17.30;;;23.10;99.90;;;;;;4947068;29;20482;-78
2022/05/20 06:01:17;;;;;;;19.40;18.10;;;23.00;99.90;;;;;;4942124;29;20811;-80
2022/05/20 06:03:43;;;;;;;18.93;17.83;;;23.20;99.90;;;;;;4939140;29;20509;-79
2022/05/20 06:06:11;;;;;;;18.80;17.07;;;23.40;99.90;;;;;;4939903;29;20500;-78
2022/05/20 06:08:38;;;;;;;17.97;16.77;;;23.50;99.90;;;;;;4943373;29;21327;-79
2022/05/20 06:11:06;;;;;;;20.00;18.63;;;23.50;99.90;;;;;;4939182;29;20520;-80
2022/05/20 06:13:34;;;;;;;18.57;17.40;;;23.40;99.90;;;;;;4942358;29;20523;-80
2022/05/20 06:16:00;;;;;;;18.43;17.20;;;23.60;99.90;;;;;;4943653;29;20443;-81
2022/05/20 06:18:28;;;;;;;19.57;18.10;;;23.80;99.90;;;;;;4941922;29;20520;-77
2022/05/20 06:20:55;;;;;;;18.20;17.10;;;24.10;99.90;;;;;;4942092;29;20455;-77
2022/05/20 06:23:22;;;;;;;18.40;17.30;;;24.30;99.90;;;;;;4943203;29;20809;-77
2022/05/20 06:25:49;;;;;;;18.30;16.67;;;24.30;99.90;;;;;;4943176;28;20504;-78
2022/05/20 06:28:18;;;;;;;18.40;17.30;;;24.30;99.90;;;;;;4945860;29;20452;-77
2022/05/20 06:30:46;;;;;;;17.50;16.50;;;24.30;99.90;;;;;;4943226;29;20456;-76
2022/05/20 06:33:13;;;;;;;17.50;16.50;;;24.30;99.90;;;;;;4946603;29;20794;-77
2022/05/20 06:41:10;;;;;;;17.80;16.73;;;24.90;99.90;;;;;;4946202;29;20429;-78
2022/05/20 06:43:38;;;;;;;20.53;19.13;;;25.10;99.90;;;;;;4942718;29;20516;-77
2022/05/20 06:46:06;;;;;;;19.00;17.93;;;25.50;99.90;;;;;;4945437;29;20894;-79
2022/05/20 06:48:43;;;;;;;18.57;17.47;;;25.60;99.90;;;;;;4943710;29;20444;-76
2022/05/20 06:51:11;;;;;;;18.13;16.93;;;25.60;99.90;;;;;;4945976;29;20461;-81
2022/05/20 06:53:38;;;;;;;18.87;17.57;;;25.80;99.90;;;;;;4951768;29;20515;-75
2022/05/20 06:56:06;;;;;;;17.93;17.00;;;26.00;99.90;;;;;;4955736;28;21053;-74
2022/05/20 06:58:33;;;;;;;18.50;17.50;;;26.20;99.90;;;;;;4964358;28;20486;-75
2022/05/20 07:01:00;;;;;;;19.20;18.07;;;26.30;99.90;;;;;;4974905;28;20542;-73
2022/05/20 07:03:28;;;;;;;17.80;17.00;;;26.60;99.90;;;;;;4974919;28;20466;-75
2022/05/20 07:05:55;;;;;;;17.67;16.87;;;27.00;99.90;;;;;;4974925;28;20495;-75
2022/05/20 07:08:22;;;;;;;18.60;17.60;;;27.20;99.90;;;;;;4974856;28;20538;-74
2022/05/20 07:10:49;;;;;;;19.53;18.43;;;27.20;99.90;;;;;;4974729;28;20510;-76
2022/05/20 07:13:16;;;;;;;18.80;17.87;;;27.40;99.90;;;;;;4973985;28;20458;-74
2022/05/20 07:15:42;;;;;;;18.53;17.60;;;27.20;99.90;;;;;;4974893;28;20510;-73
2022/05/20 07:18:09;;;;;;;18.77;17.60;;;27.30;99.90;;;;;;4974860;28;20459;-73
2022/05/20 07:20:37;;;;;;;18.57;17.67;;;27.30;99.90;;;;;;4974565;28;20460;-73
2022/05/20 07:23:04;;;;;;;19.53;18.00;;;27.10;99.90;;;;;;4974524;28;20456;-74
2022/05/20 07:25:33;;;;;;;20.03;18.83;;;27.10;99.90;;;;;;4974341;28;20875;-76
2022/05/20 07:28:00;;;;;;;18.50;17.53;;;27.20;99.90;;;;;;4974295;28;20502;-75
2022/05/20 07:30:28;;;;;;;19.73;18.50;;;27.50;99.70;;;;;;4974439;28;20458;-74
2022/05/20 07:32:55;;;;;;;18.47;17.37;;;27.60;99.70;;;;;;4974425;28;20459;-75
2022/05/20 07:35:22;;;;;;;19.03;17.90;;;27.70;99.20;;;;;;4974114;28;20455;-74
2022/05/20 07:37:51;;;;;;;19.13;18.10;;;27.90;99.20;;;;;;4973857;28;20713;-75
2022/05/20 07:40:18;;;;;;;19.10;17.67;;;27.90;98.70;;;;;;4974189;28;20456;-74
2022/05/20 07:42:46;;;;;;;20.57;18.90;;;28.20;98.00;;;;;;4974101;28;20456;-75
2022/05/20 07:45:14;;;;;;;18.50;17.10;;;28.10;97.90;;;;;;4974101;28;20570;-75
2022/05/20 07:47:40;;;;;;;18.10;17.10;;;28.10;97.80;;;;;;4973976;28;20463;-75
2022/05/20 07:50:08;;;;;;;16.77;15.97;;;28.30;97.20;;;;;;4974241;28;20463;-75
2022/05/20 07:55:26;;;;;;;18.50;17.50;;;29.20;95.20;;;;;;4974329;28;20530;-75
2022/05/20 07:57:53;;;;;;;19.23;18.13;;;29.20;95.00;;;;;;4973943;28;20487;-75
2022/05/20 08:00:21;;;;;;;19.30;17.90;;;29.40;94.80;;;;;;4974008;28;20451;-75
2022/05/20 08:02:50;;;;;;;19.47;18.37;;;30.10;94.00;;;;;;4973956;28;20455;-75
2022/05/20 08:05:20;;;;;;;18.40;17.50;;;30.60;93.10;;;;;;4965144;28;20484;-76
2022/05/20 08:07:47;;;;;;;19.97;18.93;;;31.20;91.60;;;;;;4962062;28;20449;-75
2022/05/20 08:10:16;;;;;;;18.90;17.80;;;31.20;91.10;;;;;;4963859;28;20787;-74
2022/05/20 08:12:45;;;;;;;19.70;18.27;;;31.10;90.80;;;;;;4963674;28;20471;-74
2022/05/20 08:15:12;;;;;;;19.10;18.00;;;31.50;90.40;;;;;;4964408;28;20440;-74
2022/05/20 08:17:41;;;;;;;18.63;17.63;;;31.50;88.50;;;;;;4963589;28;20456;-76
2022/05/20 08:20:10;;;;;;;17.87;16.73;;;31.50;87.60;;;;;;4959721;28;20468;-75
2022/05/20 08:22:37;;;;;;;18.20;17.40;;;32.00;85.10;;;;;;4958190;28;20440;-76
2022/05/20 08:25:05;;;;;;;19.07;17.90;;;32.60;80.60;;;;;;4954098;29;20488;-75
2022/05/20 08:27:32;;;;;;;18.70;17.77;;;32.80;78.10;;;;;;4952339;29;20464;-76
2022/05/20 08:30:05;;;;;;;18.20;17.30;;;33.00;77.60;;;;;;4954212;29;20461;-76
2022/05/20 08:32:32;;;;;;;18.83;17.73;;;33.20;76.50;;;;;;4953444;29;20484;-76
2022/05/20 08:34:59;;;;;;;19.07;17.97;;;33.70;75.40;;;;;;4953888;29;20448;-77
2022/05/20 08:37:25;;;;;;;19.23;18.27;;;34.50;72.90;;;;;;4954132;29;20839;-76
2022/05/20 08:39:52;;;;;;;17.20;16.47;;;35.00;71.40;;;;;;4953913;29;20467;-76
2022/05/20 08:42:22;;;;;;;20.17;18.93;;;35.70;70.00;;;;;;4953637;29;20456;-76
2022/05/20 08:44:50;;;;;;;18.57;17.40;;;36.50;65.30;;;;;;4953528;29;20511;-76
2022/05/20 08:47:22;;;;;;;19.10;18.10;;;36.50;63.90;;;;;;4953500;29;20464;-76
2022/05/20 08:49:51;;;;;;;19.93;18.93;;;36.20;62.20;;;;;;4953112;28;21037;-74
2022/05/20 08:52:19;;;;;;;19.90;18.30;;;36.40;64.00;;;;;;4953591;29;20498;-74
2022/05/20 08:54:46;;;;;;;20.50;19.00;;;36.40;60.60;;;;;;4953448;29;20470;-75
2022/05/20 08:57:19;;;;;;;19.53;18.60;;;36.50;61.60;;;;;;4953485;28;20480;-74
2022/05/20 08:59:46;;;;;;;18.37;17.33;;;36.60;58.90;;;;;;4953137;29;20488;-75
2022/05/20 09:02:13;;;;;;;18.10;17.10;;;36.80;59.40;;;;;;4953233;29;20512;-75
2022/05/20 09:04:41;;;;;;;18.90;17.90;;;36.50;58.40;;;;;;4953503;29;20463;-75
2022/05/20 09:07:10;;;;;;;20.23;19.07;;;36.20;60.10;;;;;;4953006;29;20492;-75
2022/05/20 09:09:44;;;;;;;18.93;17.83;;;36.80;58.90;;;;;;4952986;29;20453;-75
2022/05/20 09:12:12;;;;;;;21.63;20.30;;;37.30;57.50;;;;;;4953292;29;20461;-75
2022/05/20 09:17:25;;;;;;;19.43;18.50;;;36.50;57.80;;;;;;4953753;29;20936;-75
2022/05/20 09:20:00;;;;;;;19.23;18.10;;;36.60;57.90;;;;;;4952985;29;20460;-74
2022/05/20 09:22:29;;;;;;;18.50;17.47;;;37.20;56.20;;;;;;4953145;29;20456;-75
2022/05/20 09:24:57;;;;;;;18.60;17.70;;;37.20;53.10;;;;;;4952907;29;20456;-74
2022/05/20 09:27:28;;;;;;;19.80;18.80;;;36.70;53.90;;;;;;4952843;29;20867;-75
2022/05/20 09:29:59;;;;;;;18.90;18.00;;;36.40;54.20;;;;;;4952917;29;20934;-75
2022/05/20 09:32:29;;;;;;;19.07;17.90;;;35.80;55.30;;;;;;4953171;29;20559;-75
2022/05/20 09:35:01;;;;;;;18.53;17.63;;;35.80;53.60;;;;;;4952985;29;20507;-75
2022/05/20 09:37:30;;;;;;;20.07;18.60;;;36.00;53.40;;;;;;4952840;29;20483;-76
2022/05/20 09:39:57;;;;;;;19.30;18.30;;;36.30;53.10;;;;;;4952900;29;20493;-75
2022/05/20 09:42:26;;;;;;;18.57;17.70;;;36.30;51.30;;;;;;4952680;29;20460;-75
2022/05/20 09:44:55;;;;;;;18.00;17.30;;;36.70;51.30;;;;;;4952622;29;20455;-75
2022/05/20 09:47:26;;;;;;;19.50;18.27;;;36.80;51.30;;;;;;4952416;29;20997;-75
2022/05/20 09:49:56;;;;;;;18.53;17.60;;;36.30;51.90;;;;;;4952678;29;20532;-75
2022/05/20 09:52:40;;;;;;;18.63;17.70;;;36.60;52.10;;;;;;4952446;29;20540;-75
2022/05/20 09:55:12;;;;;;;18.90;18.00;;;37.30;51.70;;;;;;4952639;29;20460;-75
2022/05/20 09:57:41;;;;;;;19.80;19.00;;;38.00;50.30;;;;;;4952432;28;20872;-75
2022/05/20 10:00:17;;;;;;;19.73;18.80;;;38.30;49.00;;;;;;4952638;29;20463;-76
2022/05/20 10:02:54;;;;;;;19.13;18.20;;;38.40;48.20;;;;;;4952153;29;20550;-76
2022/05/20 10:05:27;;;;;;;20.10;19.10;;;37.70;49.20;;;;;;4952229;29;20456;-76
2022/05/20 10:08:06;;;;;;;19.60;18.40;;;38.20;50.50;;;;;;4952532;29;20457;-76
2022/05/20 10:10:54;;;;;;;19.33;18.23;;;38.60;48.40;;;;;;4952278;29;20456;-76
2022/05/20 10:13:32;;;;;;;19.70;18.90;;;38.50;47.80;;;;;;4951905;29;20456;-76
2022/05/20 10:16:10;;;;;;;18.77;17.77;;;38.80;47.10;;;;;;4951870;29;20487;-75
2022/05/20 10:18:44;;;;;;;19.20;18.10;;;37.90;47.00;;;;;;4952115;29;20551;-76
2022/05/20 10:21:21;;;;;;;19.67;18.77;;;37.60;48.10;;;;;;4952208;29;20474;-76
2022/05/20 10:23:55;;;;;;;17.67;16.67;;;38.00;48.10;;;;;;4952252;29;20551;-76
2022/05/20 10:26:34;;;;;;;19.63;18.73;;;39.00;46.30;;;;;;4952306;29;20464;-75
2022/05/20 10:34:50;;;;;;;20.70;19.20;;;40.10;45.50;;;;;;4952252;29;20467;-76
2022/05/20 10:37:23;;;;;;;21.13;19.73;;;40.30;43.60;;;;;;4952112;29;20662;-76
2022/05/20 10:40:08;;;;;;;21.00;20.00;;;40.40;42.90;;;;;;4951800;29;20507;-74
2022/05/20 10:42:52;;;;;;;20.10;19.10;;;40.60;41.50;;;;;;4952076;29;20522;-77
2022/05/20 10:48:51;;;;;;;20.63;19.53;;;39.40;41.90;;;;;;4952207;29;20519;-75
2022/05/20 10:51:34;;;;;;;19.20;18.07;;;39.10;41.10;;;;;;4950096;29;20503;-77
2022/05/20 10:54:10;;;;;;;19.50;18.40;;;37.80;42.10;;;;;;4951924;29;20504;-76
2022/05/20 10:56:53;;;;;;;18.87;17.90;;;37.20;42.80;;;;;;4951657;28;20551;-76
2022/05/20 10:59:39;;;;;;;20.40;19.30;;;37.70;41.80;;;;;;4951820;29;20484;-75
2022/05/20 11:02:23;;;;;;;17.97;16.90;;;38.90;41.00;;;;;;4951776;29;20455;-76
2022/05/20 11:05:16;;;;;;;19.73;18.63;;;39.60;39.80;;;;;;4951768;29;20460;-77
2022/05/20 11:08:03;;;;;;;20.57;19.43;;;39.70;39.30;;;;;;4951787;29;20998;-77
2022/05/20 11:10:50;;;;;;;20.47;19.17;;;39.90;39.10;;;;;;4951794;29;20508;-75
2022/05/20 11:13:33;;;;;;;20.50;19.20;;;39.20;39.60;;;;;;4955057;29;20456;-75
2022/05/20 11:16:13;;;;;;;18.87;17.87;;;39.30;39.60;;;;;;4955265;29;20547;-75
2022/05/20 11:18:55;;;;;;;19.70;18.80;;;39.80;39.80;;;;;;4955638;29;20460;-75
2022/05/20 11:21:52;;;;;;;19.40;18.40;;;40.10;39.40;;;;;;4955459;29;20456;-75
2022/05/20 11:24:54;;;;;;;19.80;18.80;;;39.60;38.80;;;;;;4954899;29;20452;-75
2022/05/20 11:27:47;;;;;;;20.70;19.10;;;39.30;38.60;;;;;;4942225;29;20574;-75
2022/05/20 11:30:31;;;;;;;19.30;18.40;;;39.40;38.50;;;;;;4955031;29;20456;-76
2022/05/20 11:33:20;;;;;;;20.10;18.90;;;40.30;37.80;;;;;;4955230;29;20473;-75
2022/05/20 11:36:15;;;;;;;20.30;19.07;;;40.80;37.70;;;;;;4954886;29;20733;-76
2022/05/20 11:39:26;;;;;;;18.63;17.40;;;40.10;37.20;;;;;;4955021;29;20590;-74
2022/05/20 11:42:11;;;;;;;20.07;19.00;;;39.00;38.30;;;;;;4877005;29;20456;-74
2022/05/20 11:44:51;;;;;;;18.83;17.93;;;38.20;40.10;;;;;;4876908;29;20974;-75
2022/05/20 11:47:57;;;;;;;19.87;18.87;;;38.60;40.20;;;;;;4933727;29;20460;-75
2022/05/20 11:50:37;;;;;;;20.13;19.13;;;39.20;38.90;;;;;;4954915;29;20452;-75
2022/05/20 11:53:08;;;;;;;19.97;18.70;;;39.20;39.50;;;;;;4954704;29;20460;-75
2022/05/20 11:55:40;;;;;;;19.60;18.70;;;40.30;37.80;;;;;;4954504;29;20468;-75
2022/05/20 11:58:11;;;;;;;19.23;18.23;;;41.30;37.40;;;;;;4954544;29;20578;-75
2022/05/20 12:00:40;;;;;;;19.23;18.03;;;40.90;35.80;;;;;;4954726;29;20511;-75
2022/05/20 12:03:14;;;;;;;18.00;17.30;;;40.00;37.80;;;;;;4954542;29;20533;-76
2022/05/20 12:05:45;;;;;;;19.70;18.70;;;40.00;37.50;;;;;;4954798;29;20453;-76
2022/05/20 12:08:46;;;;;;;19.20;18.17;;;40.50;37.00;;;;;;4954685;29;20463;-74
2022/05/20 12:11:22;;;;;;;20.43;19.13;;;39.60;37.20;;;;;;4954280;29;20449;-74
2022/05/20 12:14:01;;;;;;;18.13;17.23;;;39.30;38.20;;;;;;4954366;29;20460;-76
2022/05/20 12:16:28;;;;;;;19.87;18.43;;;40.20;37.20;;;;;;4954158;29;20488;-75
2022/05/20 12:24:38;;;;;;;19.93;18.53;;;38.40;38.50;;;;;;4953291;28;20436;-75
2022/05/20 12:27:11;;;;;;;18.70;17.80;;;38.10;38.40;;;;;;4954015;29;21026;-75
2022/05/20 12:30:00;;;;;;;19.00;18.03;;;37.30;39.60;;;;;;4954210;29;20453;-76
2022/05/20 12:32:43;;;;;;;17.70;16.90;;;37.30;39.50;;;;;;4950615;29;20515;-76
2022/05/20 12:35:15;;;;;;;19.00;18.13;;;37.10;39.30;;;;;;4954259;29;20452;-76
2022/05/20 12:38:00;;;;;;;18.80;17.70;;;37.30;39.70;;;;;;4953869;29;21057;-76
2022/05/20 12:40:50;;;;;;;18.50;17.60;;;37.20;39.60;;;;;;4953986;29;20460;-76
2022/05/20 12:43:17;;;;;;;19.87;19.07;;;37.70;39.50;;;;;;4953852;29;20618;-75
2022/05/20 12:45:50;;;;;;;18.70;17.80;;;37.90;39.10;;;;;;4953625;29;20935;-75
2022/05/20 12:48:18;;;;;;;18.23;17.33;;;38.10;38.50;;;;;;4953704;29;20456;-74
2022/05/20 12:50:58;;;;;;;19.37;18.27;;;38.40;38.10;;;;;;4953204;29;20453;-75
2022/05/20 12:53:28;;;;;;;18.87;17.93;;;38.30;37.50;;;;;;4953713;29;20931;-75
2022/05/20 12:55:55;;;;;;;19.93;18.83;;;37.90;37.60;;;;;;4953909;28;20871;-74
2022/05/20 12:58:25;;;;;;;21.00;19.70;;;37.60;39.40;;;;;;4953349;29;20543;-73
2022/05/20 13:00:54;;;;;;;18.53;17.43;;;37.50;39.20;;;;;;4953513;29;20456;-73
2022/05/20 13:03:24;;;;;;;19.33;18.20;;;37.90;38.20;;;;;;4953343;29;20461;-75
2022/05/20 13:05:55;;;;;;;17.80;16.93;;;38.40;38.70;;;;;;4953294;29;20459;-75
2022/05/20 13:08:27;;;;;;;20.00;18.90;;;39.10;36.70;;;;;;4953193;29;20796;-75
2022/05/20 13:10:54;;;;;;;18.43;17.30;;;39.00;37.00;;;;;;4953172;29;20550;-76
2022/05/20 13:13:23;;;;;;;17.10;16.13;;;38.50;37.40;;;;;;4953204;29;20468;-74
2022/05/20 13:15:52;;;;;;;18.37;17.50;;;39.00;37.30;;;;;;4953380;29;20464;-74
2022/05/20 13:18:21;;;;;;;20.83;19.80;;;39.20;37.00;;;;;;4953341;29;20499;-77
2022/05/20 13:20:51;;;;;;;18.83;17.70;;;39.60;35.80;;;;;;4953193;29;20452;-77
2022/05/20 13:23:21;;;;;;;20.07;19.07;;;39.60;35.60;;;;;;4953238;29;20653;-77
2022/05/20 13:25:50;;;;;;;20.13;19.13;;;39.60;35.90;;;;;;4955506;28;20817;-78
2022/05/20 13:28:28;;;;;;;18.83;17.80;;;39.30;36.30;;;;;;4961532;28;20445;-78
2022/05/20 13:31:01;;;;;;;18.83;17.63;;;38.60;36.40;;;;;;4960465;28;20444;-78
2022/05/20 13:33:28;;;;;;;17.93;17.00;;;38.50;37.00;;;;;;4958194;28;20488;-77
2022/05/20 13:35:55;;;;;;;18.30;17.43;;;38.00;36.60;;;;;;4961276;28;20536;-77
2022/05/20 13:38:28;;;;;;;19.97;18.73;;;37.70;37.90;;;;;;4961894;28;21005;-77
2022/05/20 13:40:55;;;;;;;19.70;18.40;;;37.90;37.20;;;;;;4961824;28;20451;-78
2022/05/20 13:43:28;;;;;;;17.90;16.90;;;38.30;37.50;;;;;;4960291;28;20448;-76
2022/05/20 13:51:34;;;;;;;18.57;17.00;;;36.20;39.00;;;;;;4963037;28;20436;-78
2022/05/20 13:54:08;;;;;;;17.33;16.40;;;36.40;39.10;;;;;;4960538;28;20444;-77
2022/05/20 13:56:38;;;;;;;18.07;16.87;;;36.90;38.60;;;;;;4960313;28;20527;-76
2022/05/20 13:59:06;;;;;;;18.10;16.93;;;36.80;38.30;;;;;;4959889;28;20836;-76
2022/05/20 14:01:34;;;;;;;17.87;16.70;;;36.80;38.50;;;;;;4961516;28;20451;-77
2022/05/20 14:04:02;;;;;;;18.37;16.97;;;37.00;38.60;;;;;;4961875;28;20448;-77
2022/05/20 14:06:29;;;;;;;18.43;17.43;;;36.60;39.30;;;;;;4958090;28;20560;-77
2022/05/20 14:08:58;;;;;;;17.20;16.40;;;36.50;39.10;;;;;;4968823;28;20448;-78
2022/05/20 14:11:31;;;;;;;18.37;17.07;;;36.80;38.30;;;;;;4971680;28;20454;-78
2022/05/20 14:14:02;;;;;;;18.20;17.30;;;37.40;39.30;;;;;;4971722;28;20554;-77
2022/05/20 14:16:32;;;;;;;17.87;16.93;;;37.70;38.10;;;;;;4971561;28;20462;-77
2022/05/20 14:19:04;;;;;;;18.00;16.63;;;37.60;38.00;;;;;;4971587;28;20456;-78
2022/05/20 14:21:34;;;;;;;17.80;16.80;;;37.80;38.10;;;;;;4971364;28;20466;-77
2022/05/20 14:24:07;;;;;;;18.37;17.33;;;37.80;38.70;;;;;;4971510;28;20448;-76
2022/05/20 14:26:41;;;;;;;17.50;16.70;;;37.90;38.20;;;;;;4971135;28;20467;-77
2022/05/20 14:29:15;;;;;;;17.90;16.80;;;37.00;38.70;;;;;;4962291;28;20451;-77
2022/05/20 14:31:46;;;;;;;17.50;16.47;;;36.50;40.00;;;;;;4959607;28;20452;-76
2022/05/20 14:34:17;;;;;;;16.60;15.80;;;36.20;40.80;;;;;;4960241;28;20492;-76
2022/05/20 14:36:44;;;;;;;17.43;16.40;;;36.20;40.40;;;;;;4962734;28;20491;-77
2022/05/20 14:39:15;;;;;;;17.13;16.00;;;35.60;41.00;;;;;;4971474;28;20463;-77
2022/05/20 14:41:44;;;;;;;15.90;14.70;;;35.20;41.80;;;;;;4971482;28;20459;-77
2022/05/20 14:44:16;;;;;;;16.57;15.70;;;34.70;42.10;;;;;;4971178;28;20458;-83
2022/05/20 14:49:34;;;;;;;17.33;16.10;;;34.20;42.00;;;;;;4974827;28;21342;-76
2022/05/20 14:52:02;;;;;;;19.87;18.47;;;33.90;44.00;;;;;;4975105;28;20548;-84
2022/05/20 14:54:38;;;;;;;19.77;18.00;;;33.10;49.90;;;;;;4974850;28;20439;-77
2022/05/20 14:57:34;;;;;;;18.57;17.30;;;32.80;52.50;;;;;;4974627;28;20494;-77
2022/05/20 15:00:15;;;;;;;18.90;17.50;;;32.10;53.90;;;;;;4931920;28;20455;-76
2022/05/20 15:02:42;;;;;;;17.40;16.33;;;31.90;54.90;;;;;;4962579;28;20448;-78
2022/05/20 15:05:10;;;;;;;17.37;16.13;;;31.40;55.00;;;;;;4963579;28;20530;-78
2022/05/20 15:07:38;;;;;;;17.47;16.13;;;31.20;54.80;;;;;;4960642;28;20959;-78
2022/05/20 15:10:10;;;;;;;18.07;16.90;;;31.30;54.50;;;;;;4961386;28;20526;-79
2022/05/20 15:12:38;;;;;;;16.33;15.37;;;31.20;55.60;;;;;;4955685;29;20519;-79
2022/05/20 15:15:05;;;;;;;15.57;14.77;;;31.30;55.10;;;;;;4953720;29;21004;-80
2022/05/20 15:17:33;;;;;;;16.53;15.60;;;31.50;55.00;;;;;;4954303;29;20516;-79
2022/05/20 15:19:59;;;;;;;15.83;15.03;;;31.60;54.80;;;;;;4955273;29;20556;-79
2022/05/20 15:22:26;;;;;;;16.13;15.30;;;31.60;54.10;;;;;;4955437;29;20456;-79
2022/05/20 15:24:53;;;;;;;17.43;16.17;;;31.80;54.40;;;;;;4955328;29;20515;-79
2022/05/20 15:27:23;;;;;;;16.97;15.93;;;32.00;54.10;;;;;;4955166;29;20507;-79
2022/05/20 15:29:52;;;;;;;17.00;15.90;;;32.00;54.10;;;;;;4955036;29;20943;-78
2022/05/20 15:35:04;;;;;;;17.17;15.90;;;31.60;54.30;;;;;;4955150;29;20597;-79
2022/05/20 15:37:34;;;;;;;16.97;15.80;;;31.40;55.30;;;;;;4954767;29;20496;-79
2022/05/20 15:40:04;;;;;;;17.27;16.23;;;31.30;55.60;;;;;;4954953;29;20537;-79
2022/05/20 15:42:31;;;;;;;17.40;16.10;;;30.90;56.50;;;;;;4954758;29;20460;-80
2022/05/20 15:44:59;;;;;;;16.13;15.03;;;30.50;57.50;;;;;;4954962;29;20463;-79
2022/05/20 15:47:27;;;;;;;16.70;15.50;;;30.00;58.90;;;;;;4955247;29;20457;-77
2022/05/20 15:49:54;;;;;;;16.83;15.83;;;29.80;59.60;;;;;;4955206;29;20449;-78
2022/05/20 15:52:26;;;;;;;15.30;14.50;;;29.40;60.80;;;;;;4954831;29;20492;-79
2022/05/20 15:54:54;;;;;;;16.60;15.70;;;29.20;62.10;;;;;;4954963;29;20817;-77
2022/05/20 15:57:24;;;;;;;18.33;17.00;;;29.20;63.70;;;;;;4954305;28;20492;-78
2022/05/20 15:59:51;;;;;;;15.93;14.90;;;29.40;65.20;;;;;;4954657;29;20452;-79
2022/05/20 16:02:22;;;;;;;15.00;14.10;;;29.50;65.30;;;;;;4954725;29;20455;-78
2022/05/20 16:04:51;;;;;;;15.70;14.60;;;29.50;65.10;;;;;;4954474;29;21128;-78
2022/05/20 16:07:22;;;;;;;15.80;14.63;;;29.30;65.20;;;;;;4954845;29;20621;-78
2022/05/20 16:09:50;;;;;;;16.10;14.70;;;29.40;66.00;;;;;;4954469;29;20452;-77
2022/05/20 16:12:19;;;;;;;14.80;13.80;;;29.50;66.40;;;;;;4954487;29;20828;-77
2022/05/20 16:14:46;;;;;;;15.70;14.57;;;29.40;66.70;;;;;;4954657;29;20457;-77
2022/05/20 16:17:13;;;;;;;16.33;15.20;;;29.40;67.50;;;;;;4954487;29;20452;-79
2022/05/20 16:19:41;;;;;;;16.33;15.13;;;29.00;68.40;;;;;;4954819;29;20866;-79
2022/05/20 16:22:09;;;;;;;16.40;15.37;;;28.60;69.80;;;;;;4954206;29;20444;-79
2022/05/20 16:24:36;;;;;;;16.97;15.77;;;28.50;71.10;;;;;;4954047;29;20457;-79
2022/05/20 16:27:04;;;;;;;17.00;15.47;;;28.60;71.10;;;;;;4953893;29;20515;-79
2022/05/20 16:29:30;;;;;;;14.80;13.90;;;28.60;70.80;;;;;;4954106;29;20456;-79
2022/05/20 16:31:57;;;;;;;16.40;15.50;;;28.60;71.40;;;;;;4954165;29;20464;-79
2022/05/20 16:34:26;;;;;;;15.83;14.63;;;28.50;72.20;;;;;;4953986;29;20464;-79
2022/05/20 16:36:54;;;;;;;17.53;16.20;;;28.40;73.40;;;;;;4954116;29;20457;-79
2022/05/20 16:39:21;;;;;;;16.63;15.40;;;28.60;74.20;;;;;;4953712;29;20940;-79
2022/05/20 16:41:48;;;;;;;16.87;15.67;;;28.50;75.00;;;;;;4953671;29;20968;-80
2022/05/20 16:44:15;;;;;;;16.87;15.80;;;28.50;76.10;;;;;;4953858;29;20457;-79
2022/05/20 16:46:41;;;;;;;16.13;14.93;;;28.60;76.60;;;;;;4954033;29;20461;-79
2022/05/20 16:49:12;;;;;;;16.77;15.17;;;28.60;74.40;;;;;;4954016;29;20448;-79
2022/05/20 16:51:42;;;;;;;15.43;14.20;;;28.90;74.20;;;;;;4953846;29;20465;-80
2022/05/20 16:54:13;;;;;;;15.00;14.20;;;29.00;73.50;;;;;;4953682;29;20449;-78
2022/05/20 17:02:13;;;;;;;15.60;14.70;;;29.40;72.00;;;;;;4953572;29;20432;-78
2022/05/20 17:04:40;;;;;;;16.27;14.97;;;29.50;71.10;;;;;;4953773;29;20465;-79
2022/05/20 17:07:07;;;;;;;16.23;15.10;;;29.30;72.00;;;;;;4953607;29;20457;-78
2022/05/20 17:09:35;;;;;;;16.00;15.00;;;29.10;72.40;;;;;;4952876;28;20519;-78
2022/05/20 17:12:52;;;;;;;16.03;15.00;;;28.90;73.60;;;;;;4953523;29;20511;-79
2022/05/20 17:15:18;;;;;;;16.00;14.93;;;28.70;73.60;;;;;;4953199;29;20472;-78
2022/05/20 17:17:45;;;;;;;16.00;15.07;;;28.50;75.00;;;;;;4953162;29;20492;-78
2022/05/20 17:20:12;;;;;;;18.67;16.97;;;28.50;75.40;;;;;;4952391;29;20460;-78
2022/05/20 17:25:25;;;;;;;16.43;15.23;;;28.30;76.70;;;;;;4953291;29;20427;-78
2022/05/20 17:27:51;;;;;;;18.00;16.70;;;28.20;77.10;;;;;;4952930;29;20457;-77
2022/05/20 17:30:19;;;;;;;16.70;15.67;;;28.20;77.50;;;;;;4952712;29;20799;-79
2022/05/20 17:32:46;;;;;;;15.97;14.87;;;28.20;77.20;;;;;;4953151;29;20460;-79
2022/05/20 17:35:12;;;;;;;16.90;15.70;;;28.20;77.60;;;;;;4953094;29;20463;-78
2022/05/20 17:37:40;;;;;;;16.27;15.20;;;28.20;78.10;;;;;;4953198;29;20491;-77